Tiempo atmosférico en la estación meteorológica de Es Mercadal, Illes Balears (77 m.)



Fecha
DESCASC
Temp. máxima en grados centígrados (hora)
DESCASC
Temp. mínima en grados centígrados (hora)
DESCASC
Temp. media en grados centígrados
DESCASC
Racha de viento máxima en m/sg (hora)
DESCASC
Velocidad máxima media en intervalos de 10 minutos(hora)
DESCASC
Precipitaciones diarias en mm
DESCASC
Precipitaciones de 00:00 a 06:00 en mm
DESCASC
Precipitaciones de 06:00 a 12:00 en mm
DESCASC
Precipitaciones de 12:00 a 18:00 en mm
DESCASC
Precipitaciones de 18:00 a 24:00 en mm
DESCASC
21-02-2021 17.1 (23:30) 12.1 (00:30) 14.6 17.5 (10:10) 10.83 (10:50) 0 0 0 0 0
20-02-2021 17.3 (14:20) 9.1 (07:50) 13.2 10.56 (21:40) 6.39 (20:30) 0 0 0 0 0
19-02-2021 17.2 (14:00) 9.8 (06:00) 13.5 6.67 (20:00) 4.17 (20:00) 0 0 0 0 0
18-02-2021 17.6 (15:30) 9.6 (00:00) 13.6 10 (12:50) 6.67 (15:00) 0 0 0 0 0
17-02-2021 15 (14:50) 7.3 (00:00) 11.2 5 (12:50) 3.61 (21:40) 0 0 0 0 0
16-02-2021 13.3 (15:10) 6.9 (00:00) 10.1 9.72 (13:50) 6.67 (12:20) 0 0 0 0 0
15-02-2021 10.9 (13:40) 5.1 (00:00) 8 7.5 (10:20) 5 (10:50) 0 0 0 0 0
14-02-2021 10.8 (02:00) 4.1 (00:00) 7.5 13.33 (14:00) 8.33 (12:50) 0 0 0 0 0
13-02-2021 13.3 (16:20) 9 (00:00) 11.2 16.67 (05:50) 10.28 (05:50) 0.6 0.6 0 0 0
12-02-2021 14.7 (14:30) 10.2 (00:00) 12.4 12.5 (18:50) 8.33 (12:40) 0.8 0 0 0.6 0.2
11-02-2021 17.4 (16:20) 8.6 (00:00) 13 9.44 (13:10) 6.11 (13:20) 0 0 0 0 0
10-02-2021 15.9 (10:20) 8.8 (00:00) 12.3 19.17 (13:10) 11.67 (12:10) 0.8 0 0 0.8 0
09-02-2021 15.7 (14:20) 11 (00:00) 13.3 15.83 (19:20) 10.56 (20:20) 0.2 0 0 0 0.2
08-02-2021 14.6 (12:10) 7.3 (00:00) 11 15.83 (11:50) 10.28 (12:10) 0 0 0 0 0
07-02-2021 13.2 (10:00) 6.7 (00:00) 9.9 8.33 (02:20) 5.83 (02:30) 6 0 4.8 1 0.2
06-02-2021 21 (05:00) 12 (00:00) 16.5 17.5 (04:50) 10 (04:50) 0 0 0 0 0
05-02-2021 20 (14:00) 8.7 (00:00) 14.3 12.78 (23:40) 8.06 (23:40) 0.2 0 0.2 0 0
04-02-2021 18.5 (16:10) 10.3 (00:00) 14.4 6.67 (13:00) 5 (12:50) 0 0 0 0 0
03-02-2021 16.1 (13:30) 11.6 (00:00) 13.9 10.56 (10:00) 7.22 (10:00) 0 0 0 0 0
02-02-2021 19 (14:20) 12 (00:00) 15.5 10.56 (03:40) 6.39 (03:30) 0 0 0 0 0
01-02-2021 16.4 (13:10) 12.6 (00:00) 14.5 19.44 (12:50) 10.56 (14:00) 0 0 0 0 0
31-01-2021 14.9 (15:50) 8.9 (00:00) 11.9 16.67 (12:40) 11.11 (15:10) 0 0 0 0 0
30-01-2021 17.1 (14:30) 9 (00:00) 13.1 16.67 (16:10) 10 (15:10) 0.4 0 0 0 0.4
29-01-2021 19.8 (11:40) 12.9 (00:00) 16.3 11.39 (09:40) 7.22 (09:20) 0 0 0 0 0
28-01-2021 20.8 (15:30) 11.7 (00:00) 16.2 8.61 (13:00) 5.83 (13:00) 0 0 0 0 0
27-01-2021 16.6 (12:40) 9.4 (00:00) 13 8.33 (06:30) 6.11 (06:20) 0 0 0 0 0
26-01-2021 11.4 (14:30) 8.8 (00:00) 10.1 14.17 (05:50) 7.78 (01:50) 0 0 0 0 0
25-01-2021 14 (13:00) 9.3 (00:00) 11.7 11.67 (21:20) 7.5 (01:10) 4.8 0 0 1.4 3.4

Gráficas

Temp. máximas Temp. mínimas Temp. medias Precipitaciones Rachas de viento máximas Velocidades máximas media en intervalos de 10 minutos

Datos horarios

Fecha y hora oficial Temperatura (ºC) Velocidad del viento (km/h) Dirección del viento Racha (km/h) Dirección de racha Precipitación (mm) Presión (hPa) Tendencia (hPa) Humedad (%)
2021-02-23 23:00:00 13.2 16 Este 25 Este 0 -- -- 91
2021-02-23 22:00:00 13.6 10 Este 27 Este 0 -- -- 90
2021-02-23 21:00:00 13.8 10 Este 25 Este 0 -- -- 90
2021-02-23 20:00:00 14 10 Este 19 Este 0 -- -- 90
2021-02-23 19:00:00 14.1 9 Este 21 Este 0 -- -- 88
2021-02-23 18:00:00 14.5 9 Este 22 Este 0 -- -- 86
2021-02-23 17:00:00 15 15 Este 26 Este 0 -- -- 82
2021-02-23 16:00:00 15.6 17 Este 26 Este 0 -- -- 78
2021-02-23 15:00:00 15.7 14 Este 25 Este 0 -- -- 79
2021-02-23 14:00:00 15.3 15 Este 30 Este 0 -- -- 82
2021-02-23 13:00:00 15.7 10 Este 33 Este 0 -- -- 81
2021-02-23 12:00:00 16.2 21 Este 37 Este 0 -- -- 80
2021-02-23 11:00:00 15.8 20 Sudeste 38 Este 0 -- -- 88
2021-02-23 10:00:00 14.7 12 Este 22 Este 0 -- -- 93
2021-02-23 09:00:00 13.5 3 Nordeste 9 Este 0 -- -- 95
2021-02-23 08:00:00 12.2 4 Oeste 8 Nordeste 0 -- -- 95
2021-02-23 07:00:00 11.5 3 Nordeste 8 Norte 0 -- -- 94
2021-02-23 06:00:00 11.2 4 Norte 6 Norte 0 -- -- 94
2021-02-23 05:00:00 11.1 3 Nordeste 5 Nordeste 0 -- -- 94
2021-02-23 04:00:00 11.5 2 Sudeste 10 Sudeste 0 -- -- 94
2021-02-23 03:00:00 11.7 4 Sur 10 Sur 0 -- -- 95
2021-02-23 02:00:00 11.7 5 Sur 9 Sur 0 -- -- 95
2021-02-23 01:00:00 11.8 8 Sur 15 Sudeste 0 -- -- 94
2021-02-23 00:00:00 11.7 10 Sur 14 Sudeste 0.2 -- -- 94
2021-02-22 23:00:00 11.5 5 Sur 14 Sudeste 0 -- -- 94
2021-02-22 22:00:00 11.5 11 Sudeste 15 Sudeste 0 -- -- 94
2021-02-22 21:00:00 11.9 9 Sur 16 Sudeste 0.2 -- -- 93
2021-02-22 20:00:00 12 11 Sudeste 15 Sur 0 -- -- 92
2021-02-22 19:00:00 12.1 10 Sur 16 Sur 0 -- -- 92
2021-02-22 18:00:00 12.2 11 Sur 18 Sur 0 -- -- 92
2021-02-22 17:00:00 12.5 13 Sur 20 Sur 0.2 -- -- 91
2021-02-22 16:00:00 12.4 13 Sur 19 Sur 0.2 -- -- 90
2021-02-22 15:00:00 12.7 13 Sur 21 Sur 0.2 -- -- 88
2021-02-22 14:00:00 13.1 10 Sudoeste 20 Sudoeste 0 -- -- 83
2021-02-22 13:00:00 14.1 9 Sudoeste 19 Oeste 0 -- -- 78
2021-02-22 12:00:00 14.6 12 Sudoeste 24 Sudoeste 0 -- -- 72
2021-02-22 11:00:00 15 8 Oeste 18 Oeste 0 -- -- 76
2021-02-22 10:00:00 14.2 8 Sudoeste 22 Sudoeste 0 -- -- 84
2021-02-22 09:00:00 13.9 16 Sudoeste 31 Sudoeste 0 -- -- 90
2021-02-22 08:00:00 13.6 13 Sur 22 Sur 0 -- -- 92
2021-02-22 07:00:00 13.6 8 Sudoeste 15 Sudoeste 0 -- -- 90
2021-02-22 06:00:00 14.2 5 Sudoeste 21 Sur 0 -- -- 88
2021-02-22 05:00:00 14.6 15 Sur 24 Sur 0 -- -- 87
2021-02-22 04:00:00 14.9 13 Sur 30 Sur 0 -- -- 84
2021-02-22 03:00:00 15.8 19 Sur 29 Sur 0 -- -- 76
2021-02-22 02:00:00 16.7 20 Sur 40 Sur 0 -- -- 72
2021-02-22 01:00:00 16.4 23 Sudeste 41 Sur 0 -- -- 75
2021-02-22 00:00:00 16.8 22 Sur 46 Sudeste 0 -- -- 71
2021-02-21 23:00:00 17 28 Sudeste 56 Sudeste 0 -- -- 67
2021-02-21 22:00:00 16.2 29 Sudeste 58 Este 0 -- -- 72
2021-02-21 21:00:00 16.1 28 Sudeste 59 Sudeste 0 -- -- 71
2021-02-21 20:00:00 15.4 28 Sudeste 58 Sudeste 0 -- -- 74
2021-02-21 19:00:00 15 29 Este 56 Este 0 -- -- 77
2021-02-21 18:00:00 15 25 Sudeste 53 Este 0 -- -- 77
2021-02-21 17:00:00 15.4 24 Sudeste 55 Sudeste 0 -- -- 77
2021-02-21 16:00:00 15.8 31 Sudeste 55 Sudeste 0 -- -- 74
2021-02-21 15:00:00 16.4 21 Sudeste 53 Sudeste 0 -- -- 74
2021-02-21 14:00:00 16.8 28 Sudeste 54 Sudeste 0 -- -- 72
2021-02-21 13:00:00 16.4 30 Sudeste 54 Sudeste 0 -- -- 76
2021-02-21 12:00:00 15.6 28 Sudeste 59 Este 0 -- -- 82
2021-02-21 11:00:00 14.9 33 Sudeste 63 Sudeste 0 -- -- 83
2021-02-21 10:00:00 14 35 Este 55 Sudeste 0 -- -- 87
2021-02-21 09:00:00 13.1 27 Sudeste 52 Este 0 -- -- 90
2021-02-21 08:00:00 12.6 26 Sudeste 48 Este 0 -- -- 91
2021-02-21 07:00:00 12.5 25 Sudeste 47 Sudeste 0 -- -- 92
2021-02-21 06:00:00 12.3 24 Sudeste 48 Sudeste 0 -- -- 92
2021-02-21 05:00:00 12.3 24 Sudeste 41 Sudeste 0 -- -- 92
2021-02-21 04:00:00 12.4 27 Sudeste 43 Sudeste 0 -- -- 91
2021-02-21 03:00:00 12.3 22 Sudeste 38 Sudeste 0 -- -- 92
2021-02-21 02:00:00 12.4 22 Sudeste 40 Sudeste 0 -- -- 92
2021-02-21 01:00:00 12.3 16 Sudeste 30 Sudeste 0 -- -- 93
2021-02-21 00:00:00 12.2 14 Sudeste 30 Sudeste 0 -- -- 93
2021-02-20 23:00:00 12.2 17 Sudeste 37 Este 0 -- -- 93
2021-02-20 22:00:00 12.3 21 Sudeste 38 Sudeste 0 -- -- 92
2021-02-20 21:00:00 12.1 19 Sudeste 34 Sudeste 0 -- -- 92
2021-02-20 20:00:00 12.1 17 Sudeste 27 Sudeste 0 -- -- 90
2021-02-20 19:00:00 12.2 12 Sudeste 21 Sudeste 0 -- -- 88
2021-02-20 18:00:00 13.8 10 Sudeste 24 Sudeste 0 -- -- 80
2021-02-20 17:00:00 15.4 15 Sudeste 24 Sudeste 0 -- -- 72
2021-02-20 16:00:00 16.7 14 Sudeste 24 Este 0 -- -- 65
2021-02-20 15:00:00 17.3 15 Sudeste 23 Este 0 -- -- 65
2021-02-20 14:00:00 16.9 14 Sudeste 26 Sudeste 0 -- -- 66
2021-02-20 13:00:00 16.1 17 Sudeste 25 Sudeste 0 -- -- 69
2021-02-20 12:00:00 16 13 Sudeste 23 Este 0 -- -- 73
2021-02-20 11:00:00 15 13 Sudeste 22 Este 0 -- -- 79
2021-02-20 10:00:00 13.8 9 Este 18 Este 0 -- -- 90
2021-02-20 09:00:00 12.2 2 Sudeste 8 Sudeste 0 -- -- 93
2021-02-20 08:00:00 9.4 0 Calma 4 Este 0 -- -- 95
2021-02-20 07:00:00 9.2 0 Calma 7 Sudeste 0 -- -- 94
2021-02-20 06:00:00 9.9 5 Sudeste 12 Sur 0 -- -- 94
2021-02-20 05:00:00 10.6 8 Sur 16 Sur 0 -- -- 94
2021-02-20 04:00:00 10.8 8 Sur 13 Sur 0 -- -- 94
2021-02-20 03:00:00 10.4 6 Sur 9 Sudeste 0 -- -- 93
2021-02-20 02:00:00 10.2 0 Calma 4 Oeste 0 -- -- 93
2021-02-20 01:00:00 11.3 7 Sur 14 Sur 0 -- -- 91
2021-02-20 00:00:00 11.6 6 Sur 18 Sur 0 -- -- 91
2021-02-19 23:00:00 11.9 11 Sur 24 Sur 0 -- -- 89
2021-02-19 22:00:00 12.1 10 Sur 21 Sur 0 -- -- 90
2021-02-19 21:00:00 12.2 9 Sur 23 Sur 0 -- -- 89
2021-02-19 20:00:00 12.2 15 Sur 24 Sur 0 -- -- 88
2021-02-19 19:00:00 12.3 11 Sudoeste 20 Sur 0 -- -- 87
2021-02-19 18:00:00 13.1 9 Sur 14 Sudoeste 0 -- -- 81
2021-02-19 17:00:00 15.1 6 Sur 12 Sur 0 -- -- 75
2021-02-19 16:00:00 14.7 9 Norte 14 Noroeste 0 -- -- 77
2021-02-19 15:00:00 15.9 8 Norte 15 Este 0 -- -- 74
2021-02-19 14:00:00 17.2 6 Sur 15 Oeste 0 -- -- 71
2021-02-19 13:00:00 16.3 7 Noroeste 14 Oeste 0 -- -- 70
2021-02-19 12:00:00 14.8 4 Oeste 15 Oeste 0 -- -- 82
2021-02-19 11:00:00 12.6 10 Oeste 17 Sudoeste 0 -- -- 91
2021-02-19 10:00:00 11.4 8 Sudoeste 13 Oeste 0 -- -- 95
2021-02-19 09:00:00 10.5 7 Sudoeste 11 Sudoeste 0 -- -- 96
2021-02-19 08:00:00 10.2 3 Oeste 8 Oeste 0 -- -- 96
2021-02-19 07:00:00 10.7 3 Oeste 14 Oeste 0 -- -- 96
2021-02-19 06:00:00 9.8 4 Oeste 10 Sur 0 -- -- 97
2021-02-19 05:00:00 11.5 7 Sur 18 Sudoeste 0 -- -- 96
2021-02-19 04:00:00 12.1 9 Sudoeste 14 Sudoeste 0 -- -- 96
2021-02-19 03:00:00 12.1 13 Sur 22 Sur 0 -- -- 95
2021-02-19 02:00:00 11.9 5 Sur 23 Sur 0 -- -- 95
2021-02-19 01:00:00 12.1 9 Sur 18 Sur 0 -- -- 94
2021-02-19 00:00:00 12.5 12 Sur 30 Sur 0 -- -- 93
2021-02-18 23:00:00 12.8 19 Sur 31 Sur 0 -- -- 93
2021-02-18 22:00:00 12.7 19 Sur 32 Sudeste 0 -- -- 92
2021-02-18 21:00:00 12.8 16 Sur 25 Sur 0 -- -- 91
2021-02-18 20:00:00 12.8 12 Sur 30 Sur 0 -- -- 90
2021-02-18 19:00:00 13.1 15 Sur 26 Sur 0 -- -- 89
2021-02-18 18:00:00 13.8 18 Sur 24 Sur 0 -- -- 84
2021-02-18 17:00:00 15.4 18 Sur 30 Sur 0 -- -- 74
2021-02-18 16:00:00 17.1 15 Sur 35 Sur 0 -- -- 62
2021-02-18 15:00:00 16.6 24 Sudeste 35 Sudeste 0 -- -- 65
2021-02-18 14:00:00 16.6 19 Sur 28 Sudeste 0 -- -- 66
2021-02-18 13:00:00 16.1 18 Sur 36 Sudeste 0 -- -- 69
2021-02-18 12:00:00 15.5 18 Sudeste 31 Sudeste 0 -- -- 74
2021-02-18 11:00:00 14.3 16 Sur 28 Sudeste 0 -- -- 80
2021-02-18 10:00:00 12.6 14 Sudeste 26 Sur 0 -- -- 86
2021-02-18 09:00:00 11.8 14 Sur 25 Sur 0 -- -- 89
2021-02-18 08:00:00 11.4 9 Sur 21 Sur 0 -- -- 90
2021-02-18 07:00:00 11.4 7 Sur 14 Sudeste 0 -- -- 91
2021-02-18 06:00:00 11.5 9 Sur 21 Sur 0 -- -- 92
2021-02-18 05:00:00 11.5 10 Sur 22 Sur 0 -- -- 92
2021-02-18 04:00:00 11.4 16 Sur 26 Sudeste 0 -- -- 93
2021-02-18 03:00:00 11.2 15 Sur 25 Sur 0 -- -- 93
2021-02-18 02:00:00 10.6 13 Sur 21 Sudeste 0 -- -- 94
2021-02-18 01:00:00 9.9 10 Sur 15 Sudoeste 0 -- -- 93
2021-02-18 00:00:00 10.1 13 Sudoeste 17 Sudoeste 0 -- -- 93
2021-02-17 23:00:00 9.8 8 Sudoeste 14 Sur 0 -- -- 92
2021-02-17 22:00:00 9.6 11 Sur 18 Sudoeste 0 -- -- 91
2021-02-17 21:00:00 9.9 10 Sudoeste 18 Sur 0 -- -- 90
2021-02-17 20:00:00 9.9 8 Sur 14 Sur 0 -- -- 87
2021-02-17 19:00:00 10.4 5 Sur 9 Sur 0 -- -- 85
2021-02-17 18:00:00 12.4 0 Calma 7 Nordeste 0 -- -- 78
2021-02-17 17:00:00 13.5 5 Nordeste 11 Nordeste 0 -- -- 75
2021-02-17 16:00:00 13.3 7 Nordeste 12 Nordeste 0 -- -- 74
2021-02-17 15:00:00 14.7 6 Sur 18 Sudoeste 0 -- -- 69
2021-02-17 14:00:00 14.4 8 Sudoeste 16 Sudoeste 0 -- -- 69
2021-02-17 13:00:00 13.9 10 Sudoeste 18 Sur 0 -- -- 71
2021-02-17 12:00:00 12.6 7 Sudoeste 12 Sur 0 -- -- 76
2021-02-17 11:00:00 11.4 7 Sudoeste 13 Sudoeste 0 -- -- 80
2021-02-17 10:00:00 11 10 Sur 13 Sur 0 -- -- 88
2021-02-17 09:00:00 10 4 Sudoeste 9 Sur 0 -- -- 92
2021-02-17 08:00:00 8.4 3 Sur 6 Sur 0 -- -- 94
2021-02-17 07:00:00 8.3 3 Sudoeste 4 Sudoeste 0 -- -- 93
2021-02-17 06:00:00 8.1 2 Sudoeste 8 Oeste 0 -- -- 93
2021-02-17 05:00:00 8.2 5 Sudoeste 10 Sudoeste 0 -- -- 94
2021-02-17 04:00:00 7.8 9 Sudoeste 11 Sudoeste 0 -- -- 93
2021-02-17 03:00:00 8 4 Sur 4 Sur 0 -- -- 91
2021-02-17 02:00:00 7.9 2 Sudoeste 4 Sudoeste 0 -- -- 92
2021-02-17 01:00:00 7.8 3 Oeste 6 Nordeste 0 -- -- 89
2021-02-17 00:00:00 8.8 2 Nordeste 14 Sudoeste 0 -- -- 88
2021-02-16 23:00:00 9.6 8 Sur 26 Sudoeste 0 -- -- 84
2021-02-16 22:00:00 10 18 Sudoeste 26 Sudoeste 0 -- -- 83
2021-02-16 21:00:00 9.9 13 Sudoeste 20 Sudoeste 0 -- -- 82
2021-02-16 20:00:00 9.4 10 Sudoeste 16 Sudoeste 0 -- -- 83
2021-02-16 19:00:00 9.7 9 Sur 18 Sur 0 -- -- 78
2021-02-16 18:00:00 11 14 Sur 29 Sur 0 -- -- 73
2021-02-16 17:00:00 12.1 19 Sur 29 Sudoeste 0 -- -- 69
2021-02-16 16:00:00 13.1 18 Sur 29 Sudoeste 0 -- -- 65
2021-02-16 15:00:00 13 18 Sudoeste 33 Sur 0 -- -- 64
2021-02-16 14:00:00 12.5 24 Sudoeste 35 Sudoeste 0 -- -- 64
2021-02-16 13:00:00 12.3 22 Sudoeste 33 Sur 0 -- -- 64
2021-02-16 12:00:00 12.3 19 Sur 33 Sudoeste 0 -- -- 65
2021-02-16 11:00:00 12.2 19 Sur 32 Sur 0 -- -- 64
2021-02-16 10:00:00 11.7 18 Sur 27 Sur 0 -- -- 65
2021-02-16 09:00:00 10 13 Sur 21 Sur 0 -- -- 74
2021-02-16 08:00:00 8 10 Sur 15 Sur 0 -- -- 80
2021-02-16 07:00:00 7.9 10 Sur 14 Sur 0 -- -- 80
2021-02-16 06:00:00 7.9 10 Sudoeste 15 Sur 0 -- -- 79
2021-02-16 05:00:00 8.1 10 Sur 13 Sudoeste 0 -- -- 77
2021-02-16 04:00:00 8.3 10 Sudoeste 14 Sur 0 -- -- 74
2021-02-16 03:00:00 8.1 10 Sur 14 Sudoeste 0 -- -- 76
2021-02-16 02:00:00 7.8 7 Sudoeste 10 Sudoeste 0 -- -- 80
2021-02-16 01:00:00 7.3 6 Sur 9 Sur 0 -- -- 79
2021-02-16 00:00:00 7.3 4 Sur 9 Sur 0 -- -- 77
2021-02-15 23:00:00 7.6 4 Sur 8 Sudeste 0 -- -- 76
2021-02-15 22:00:00 7.6 4 Sur 10 Sudeste 0 -- -- 74
2021-02-15 21:00:00 8.3 4 Sur 9 Sudeste 0 -- -- 72
2021-02-15 20:00:00 8.7 6 Sudeste 10 Sudeste 0 -- -- 70
2021-02-15 19:00:00 9.1 6 Sudeste 12 Sudeste 0 -- -- 68
2021-02-15 18:00:00 9.6 6 Sur 19 Sur 0 -- -- 65
2021-02-15 17:00:00 10.1 13 Sur 26 Sudeste 0 -- -- 63
2021-02-15 16:00:00 10.5 13 Sur 23 Sudeste 0 -- -- 61
2021-02-15 15:00:00 10.6 14 Sudeste 25 Sudeste 0 -- -- 57
2021-02-15 14:00:00 10.7 14 Sudeste 24 Sudeste 0 -- -- 56
2021-02-15 13:00:00 10.8 13 Sudeste 24 Sudeste 0 -- -- 56
2021-02-15 12:00:00 10.6 13 Sudeste 27 Sur 0 -- -- 57
2021-02-15 11:00:00 9.9 14 Sudeste 27 Sudeste 0 -- -- 58
2021-02-15 10:00:00 8.8 8 Sudeste 15 Sudeste 0 -- -- 65
2021-02-15 09:00:00 8.4 7 Sudeste 19 Este 0 -- -- 63
2021-02-15 08:00:00 5.9 5 Sudeste 18 Este 0 -- -- 70
2021-02-15 07:00:00 5.6 8 Sudeste 15 Sudeste 0 -- -- 72
2021-02-15 06:00:00 5.7 10 Sudeste 15 Sudeste 0 -- -- 72
2021-02-15 05:00:00 6.2 8 Sudeste 22 Este 0 -- -- 70
2021-02-15 04:00:00 6.3 9 Sudeste 18 Sudeste 0 -- -- 71
2021-02-15 03:00:00 5.9 8 Sudeste 10 Sudeste 0 -- -- 73
2021-02-15 02:00:00 6 5 Sudeste 8 Sudeste 0 -- -- 70
2021-02-15 01:00:00 5.2 2 Sur 18 Este 0 -- -- 72
2021-02-15 00:00:00 5.6 9 Este 15 Este 0 -- -- 77
2021-02-14 23:00:00 5.2 0 Calma 6 Este 0 -- -- 75
2021-02-14 22:00:00 5.6 0 Calma 5 Nordeste 0 -- -- 75
2021-02-14 21:00:00 5.8 2 Oeste 10 Nordeste 0 -- -- 73
2021-02-14 20:00:00 6.6 5 Norte 19 Este 0 -- -- 68
2021-02-14 19:00:00 7.2 13 Nordeste 31 Nordeste 0 -- -- 65
2021-02-14 18:00:00 8.1 19 Nordeste 34 Nordeste 0 -- -- 63
2021-02-14 17:00:00 8.6 18 Nordeste 42 Nordeste 0 -- -- 63
2021-02-14 16:00:00 9.5 26 Nordeste 44 Nordeste 0 -- -- 62
2021-02-14 15:00:00 9.1 25 Nordeste 48 Nordeste 0 -- -- 63
2021-02-14 14:00:00 9.7 27 Nordeste 48 Nordeste 0 -- -- 60
2021-02-14 13:00:00 9.9 28 Nordeste 47 Nordeste 0 -- -- 58
2021-02-14 12:00:00 10.5 26 Nordeste 46 Este 0 -- -- 61
2021-02-14 11:00:00 9.8 28 Nordeste 42 Nordeste 0 -- -- 67
2021-02-14 10:00:00 10 21 Nordeste 37 Nordeste 0 -- -- 68
2021-02-14 09:00:00 9.6 23 Nordeste 39 Nordeste 0 -- -- 68
2021-02-14 08:00:00 9.7 19 Nordeste 34 Nordeste 0 -- -- 72
2021-02-14 07:00:00 9.8 16 Nordeste 32 Nordeste 0 -- -- 71
2021-02-14 06:00:00 10 19 Nordeste 27 Nordeste 0 -- -- 72
2021-02-14 05:00:00 10 15 Nordeste 24 Nordeste 0 -- -- 74
2021-02-14 04:00:00 10.3 15 Nordeste 21 Nordeste 0 -- -- 79
2021-02-14 03:00:00 10.8 10 Norte 15 Norte 0 -- -- 80
2021-02-14 02:00:00 10.8 8 Norte 15 Norte 0 -- -- 82
2021-02-14 01:00:00 10.3 6 Norte 10 Nordeste 0 -- -- 86
2021-02-14 00:00:00 10.2 5 Norte 12 Nordeste 0 -- -- 88
2021-02-13 23:00:00 9.8 8 Norte 12 Norte 0 -- -- 90
2021-02-13 22:00:00 9 0 Calma 5 Sur 0 -- -- 89
2021-02-13 21:00:00 9.4 3 Norte 6 Norte 0 -- -- 88
2021-02-13 20:00:00 9.5 0 Calma 7 Nordeste 0 -- -- 87
2021-02-13 19:00:00 9.9 4 Norte 15 Nordeste 0 -- -- 84
2021-02-13 18:00:00 11 11 Nordeste 14 Nordeste 0 -- -- 80
2021-02-13 17:00:00 12.5 9 Nordeste 16 Norte 0 -- -- 75
2021-02-13 16:00:00 13.1 11 Nordeste 28 Norte 0 -- -- 75
2021-02-13 15:00:00 13 14 Norte 27 Norte 0 -- -- 73
2021-02-13 14:00:00 12.2 15 Norte 29 Norte 0 -- -- 76
2021-02-13 13:00:00 11.9 23 Norte 35 Norte 0 -- -- 76
2021-02-13 08:00:00 -- -- -- -- -- -- -- -- --
2021-02-13 07:00:00 11.4 36 Norte 57 Noroeste 0 -- -- 80
2021-02-13 06:00:00 11.4 36 Norte 60 Norte 0 -- -- 78
2021-02-13 05:00:00 12.1 30 Norte 52 Norte 0 -- -- 75
2021-02-13 04:00:00 12.1 25 Norte 49 Norte 0 -- -- 79
2021-02-13 03:00:00 12 31 Norte 58 Norte 0.2 -- -- 83
2021-02-13 02:00:00 12.1 25 Noroeste 40 Noroeste 0 -- -- 86
2021-02-13 01:00:00 12.2 22 Noroeste 44 Noroeste 0.4 -- -- 86
2021-02-13 00:00:00 12.1 20 Oeste 31 Noroeste 0.2 -- -- 86
2021-02-12 23:00:00 12.2 14 Noroeste 32 Noroeste 0 -- -- 85
2021-02-12 22:00:00 12.2 15 Noroeste 31 Oeste 0 -- -- 86
2021-02-12 21:00:00 12 19 Oeste 33 Oeste 0 -- -- 87
2021-02-12 20:00:00 12.5 14 Noroeste 39 Noroeste 0 -- -- 87
2021-02-12 19:00:00 13.2 29 Oeste 45 Oeste 0 -- -- 93
2021-02-12 18:00:00 13.7 18 Sudoeste 41 Sudoeste 0 -- -- 94
2021-02-12 17:00:00 13.6 19 Sur 30 Sur 0.2 -- -- 94
2021-02-12 16:00:00 13.8 6 Sur 23 Sudoeste 0.4 -- -- 94
2021-02-12 15:00:00 14.3 13 Sur 26 Sudoeste 0 -- -- 93
2021-02-12 14:00:00 14.2 19 Sudoeste 32 Sudoeste 0 -- -- 94
2021-02-12 13:00:00 14.4 26 Sudoeste 41 Sudoeste 0 -- -- 93
2021-02-12 12:00:00 14 27 Sudoeste 40 Sur 0 -- -- 94
2021-02-12 11:00:00 13.6 26 Sudoeste 41 Sudoeste 0 -- -- 96
2021-02-12 10:00:00 13 21 Sudoeste 37 Sur 0 -- -- 96
2021-02-12 09:00:00 12.9 25 Sudoeste 34 Sudoeste 0 -- -- 94
2021-02-12 08:00:00 12.9 18 Sur 24 Sur 0 -- -- 94
2021-02-12 07:00:00 12.4 18 Sur 26 Sur 0 -- -- 93
2021-02-12 06:00:00 12.2 20 Sur 25 Sur 0 -- -- 92
2021-02-12 05:00:00 11.6 16 Sur 24 Sudoeste 0 -- -- 90
2021-02-12 04:00:00 10.9 7 Sur 21 Sur 0 -- -- 88
2021-02-12 03:00:00 11.2 8 Sur 10 Sur 0 -- -- 78
2021-02-12 02:00:00 11.2 7 Sur 10 Sur 0 -- -- 75
2021-02-12 01:00:00 11.3 4 Sudoeste 12 Sudoeste 0 -- -- 67
2021-02-12 00:00:00 10.4 6 Sudoeste 9 Sur 0 -- -- 78
2021-02-11 23:00:00 9 4 Sudoeste 6 Oeste 0 -- -- 83
2021-02-11 22:00:00 9.2 3 Sur 6 Sudeste 0 -- -- 81
2021-02-11 21:00:00 9.8 3 Sudoeste 6 Sudeste 0 -- -- 82
2021-02-11 20:00:00 11.6 7 Sudeste 13 Sudeste 0 -- -- 77
2021-02-11 19:00:00 12.1 5 Sudoeste 10 Sudoeste 0 -- -- 75
2021-02-11 18:00:00 14 9 Sudoeste 15 Sur 0 -- -- 68
2021-02-11 17:00:00 17.1 10 Oeste 23 Sudoeste 0 -- -- 43
2021-02-11 16:00:00 17.1 16 Oeste 33 Oeste 0 -- -- 44
2021-02-11 15:00:00 16.9 15 Oeste 25 Sudoeste 0 -- -- 50
2021-02-11 14:00:00 16.8 15 Oeste 34 Oeste 0 -- -- 44
2021-02-11 13:00:00 16.3 21 Oeste 30 Noroeste 0 -- -- 48
2021-02-11 12:00:00 15.2 13 Sudoeste 24 Oeste 0 -- -- 60
2021-02-11 11:00:00 15.2 15 Sudoeste 22 Sudoeste 0 -- -- 54
2021-02-11 10:00:00 13.9 11 Sudoeste 19 Sudoeste 0 -- -- 64
2021-02-11 09:00:00 12 13 Sudoeste 22 Sudoeste 0 -- -- 73
2021-02-11 08:00:00 10.2 15 Sudoeste 22 Sudoeste 0 -- -- 70
2021-02-11 07:00:00 10.1 14 Sudoeste 19 Sudoeste 0 -- -- 75
2021-02-11 06:00:00 10.8 10 Sudoeste 27 Oeste 0 -- -- 74
2021-02-11 05:00:00 10.8 10 Oeste 20 Sudoeste 0 -- -- 74
2021-02-11 04:00:00 10.6 13 Sudoeste 23 Oeste 0 -- -- 73
2021-02-11 03:00:00 9.2 11 Sudoeste 18 Sudoeste 0 -- -- 85
2021-02-11 02:00:00 9.5 9 Sudoeste 14 Sudoeste 0 -- -- 85
2021-02-11 01:00:00 8.9 13 Sudoeste 19 Sudoeste 0 -- -- 87
2021-02-11 00:00:00 9.4 11 Sudoeste 17 Sur 0 -- -- 86
2021-02-10 23:00:00 8.9 4 Sudoeste 5 Sudoeste 0 -- -- 86
2021-02-10 22:00:00 9.5 2 Sudoeste 13 Sudoeste 0 -- -- 85
2021-02-10 21:00:00 9.5 6 Sudoeste 12 Sudoeste 0 -- -- 84
2021-02-10 20:00:00 10 3 Oeste 12 Noroeste 0 -- -- 79
2021-02-10 19:00:00 11.2 6 Noroeste 29 Noroeste 0 -- -- 74
2021-02-10 18:00:00 12 17 Noroeste 42 Noroeste 0 -- -- 71
2021-02-10 17:00:00 12.9 19 Noroeste 46 Oeste 0 -- -- 64
2021-02-10 16:00:00 12.7 22 Noroeste 47 Oeste 0 -- -- 68
2021-02-10 15:00:00 11.9 33 Oeste 54 Noroeste 0.4 -- -- 71
2021-02-10 14:00:00 11.8 19 Noroeste 69 Oeste 0.4 -- -- 80
2021-02-10 13:00:00 15.2 32 Oeste 65 Oeste 0 -- -- 62
2021-02-10 12:00:00 14.5 26 Oeste 60 Oeste 0 -- -- 64
2021-02-10 11:00:00 15.5 35 Sudoeste 58 Sudoeste 0 -- -- 55
2021-02-10 10:00:00 15.6 26 Sudoeste 45 Oeste 0 -- -- 55
2021-02-10 09:00:00 13.8 15 Oeste 28 Oeste 0 -- -- 64
2021-02-10 08:00:00 12.4 15 Sudoeste 24 Sudoeste 0 -- -- 73
2021-02-10 07:00:00 12.5 11 Oeste 26 Sudoeste 0 -- -- 80
2021-02-10 06:00:00 12.9 14 Oeste 31 Sudoeste 0 -- -- 80
2021-02-10 05:00:00 13.3 21 Sudoeste 36 Sudoeste 0 -- -- 84
2021-02-10 04:00:00 13.6 28 Sudoeste 42 Sudoeste 0 -- -- 86
2021-02-10 03:00:00 13.4 23 Sudoeste 49 Sudoeste 0 -- -- 87
2021-02-10 02:00:00 13.9 34 Sudoeste 48 Sudoeste 0 -- -- 84
2021-02-10 01:00:00 13.7 29 Sudoeste 50 Sudoeste 0 -- -- 88
2021-02-10 00:00:00 13.6 33 Sudoeste 53 Sudoeste 0 -- -- 88
2021-02-09 23:00:00 13.7 35 Sudoeste 55 Sudoeste 0 -- -- 88
2021-02-09 22:00:00 13.3 36 Sudoeste 54 Sudoeste 0.2 -- -- 87
2021-02-09 21:00:00 13 36 Sudoeste 55 Sudoeste 0 -- -- 78
2021-02-09 20:00:00 13.3 33 Sudoeste 57 Sudoeste 0 -- -- 82
2021-02-09 19:00:00 13.1 34 Sudoeste 55 Sudoeste 0 -- -- 87
2021-02-09 18:00:00 13.3 32 Sudoeste 50 Sur 0 -- -- 87
2021-02-09 17:00:00 13.8 34 Sudoeste 54 Sudoeste 0 -- -- 77
2021-02-09 16:00:00 14 32 Sudoeste 49 Sudoeste 0 -- -- 74
2021-02-09 15:00:00 15.1 26 Sudoeste 52 Sudoeste 0 -- -- 57
2021-02-09 14:00:00 15.4 30 Sudoeste 45 Sudoeste 0 -- -- 59
2021-02-09 13:00:00 14.3 26 Sudoeste 43 Sudoeste 0 -- -- 66
2021-02-09 12:00:00 14.1 23 Sudoeste 34 Sudoeste 0 -- -- 68
2021-02-09 11:00:00 14.7 12 Sudoeste 33 Oeste 0 -- -- 58
2021-02-09 10:00:00 13.8 18 Sudoeste 30 Sudoeste 0 -- -- 67
2021-02-09 09:00:00 11.9 14 Sudoeste 25 Oeste 0 -- -- 77
2021-02-09 08:00:00 11.1 12 Sudoeste 29 Sudoeste 0 -- -- 77
2021-02-09 07:00:00 12 22 Oeste 42 Oeste 0 -- -- 74
2021-02-09 06:00:00 11.9 22 Oeste 35 Oeste 0 -- -- 77
2021-02-09 05:00:00 11 16 Sudoeste 24 Sudoeste 0 -- -- 75
2021-02-09 04:00:00 11.8 13 Sudoeste 24 Oeste 0 -- -- 74
2021-02-09 03:00:00 12 15 Sudoeste 40 Oeste 0 -- -- 71
2021-02-09 02:00:00 12.8 26 Oeste 44 Oeste 0 -- -- 73
2021-02-09 01:00:00 12.3 18 Oeste 35 Oeste 0 -- -- 75
2021-02-09 00:00:00 12.2 16 Oeste 32 Oeste 0 -- -- 75
2021-02-08 23:00:00 12.1 14 Sudoeste 25 Oeste 0 -- -- 76
2021-02-08 22:00:00 12.5 14 Sudoeste 19 Sudoeste 0 -- -- 74
2021-02-08 21:00:00 12.6 11 Sudoeste 43 Oeste 0 -- -- 75
2021-02-08 20:00:00 13.8 30 Oeste 51 Oeste 0 -- -- 65
2021-02-08 19:00:00 13.2 26 Oeste 48 Oeste 0 -- -- 71
2021-02-08 18:00:00 13.5 28 Oeste 40 Oeste 0 -- -- 72
2021-02-08 17:00:00 14 25 Sudoeste 42 Sudoeste 0 -- -- 81
2021-02-08 16:00:00 13.5 27 Sudoeste 48 Sudoeste 0 -- -- 79
2021-02-08 15:00:00 13.3 35 Sudoeste 49 Sudoeste 0 -- -- 76
2021-02-08 14:00:00 13.7 35 Sudoeste 56 Sudoeste 0 -- -- 71
2021-02-08 13:00:00 14.5 21 Sudoeste 51 Sudoeste 0 -- -- 70
2021-02-08 12:00:00 14 36 Sudoeste 57 Sudoeste 0 -- -- 71
2021-02-08 11:00:00 13.6 29 Sudoeste 50 Sudoeste 0 -- -- 71
2021-02-08 10:00:00 13 27 Sudoeste 42 Sudoeste 0 -- -- 78
2021-02-08 09:00:00 11.8 22 Sudoeste 33 Sudoeste 0 -- -- 82
2021-02-08 08:00:00 10.5 10 Sudoeste 17 Oeste 0 -- -- 87
2021-02-08 07:00:00 10.8 10 Sudoeste 21 Sudoeste 0 -- -- 86
2021-02-08 06:00:00 10.9 15 Sudoeste 22 Sudoeste 0 -- -- 86
2021-02-08 05:00:00 10.9 15 Sudoeste 25 Sudoeste 0 -- -- 86
2021-02-08 04:00:00 9.8 15 Sudoeste 23 Sudoeste 0 -- -- 84
2021-02-08 03:00:00 9.4 11 Sudoeste 24 Sudoeste 0 -- -- 80
2021-02-08 02:00:00 9.1 13 Sudoeste 26 Sudoeste 0 -- -- 80
2021-02-08 01:00:00 7.5 7 Sudoeste 15 Sudoeste 0 -- -- 85
2021-02-08 00:00:00 8.3 13 Sudoeste 19 Sudoeste 0 -- -- 85
2021-02-07 23:00:00 7.9 14 Sudoeste 21 Sudoeste 0 -- -- 93
2021-02-07 22:00:00 7.1 9 Sudoeste 17 Sudoeste 0 -- -- 93
2021-02-07 21:00:00 6.7 6 Sudoeste 10 Sur 0 -- -- 94
2021-02-07 20:00:00 7 3 Sudoeste 8 Oeste 0.2 -- -- 92
2021-02-07 19:00:00 7.7 4 Sudoeste 9 Oeste 0 -- -- 92
2021-02-07 18:00:00 8.5 4 Nordeste 12 Nordeste 0.2 -- -- 91
2021-02-07 17:00:00 9.2 4 Norte 14 Nordeste 0.2 -- -- 90
2021-02-07 16:00:00 9.6 9 Nordeste 19 Norte 0.6 -- -- 89
2021-02-07 15:00:00 9.8 10 Norte 18 Norte 0 -- -- 86
2021-02-07 14:00:00 10.6 8 Norte 20 Nordeste 0 -- -- 85
2021-02-07 13:00:00 10.5 9 Norte 20 Nordeste 0 -- -- 89
2021-02-07 12:00:00 9.9 13 Norte 24 Norte 2.6 -- -- 90
2021-02-07 11:00:00 10.9 15 Nordeste 29 Este 2.2 -- -- 86
2021-02-07 10:00:00 13.2 10 Noroeste 21 Noroeste 0 -- -- 83
2021-02-07 09:00:00 11.4 5 Oeste 15 Oeste 0 -- -- 90
2021-02-07 08:00:00 11.6 10 Oeste 16 Oeste 0 -- -- 91
2021-02-07 07:00:00 10.9 0 Calma 12 Sudeste 0 -- -- 91
2021-02-07 06:00:00 11.3 8 Sur 15 Sudoeste 0 -- -- 90
2021-02-07 05:00:00 11.1 5 Sur 21 Sudoeste 0 -- -- 90
2021-02-07 04:00:00 11.8 15 Sudoeste 22 Sudoeste 0 -- -- 88
2021-02-07 03:00:00 12.3 18 Sudoeste 30 Sudoeste 0 -- -- 88
2021-02-07 02:00:00 12.3 14 Sudoeste 23 Sudoeste 0 -- -- 89
2021-02-07 01:00:00 12.2 5 Sur 21 Sudoeste 0 -- -- 87
2021-02-07 00:00:00 13.1 13 Sudoeste 60 Sudoeste 0 -- -- 84
2021-02-06 23:00:00 13.3 20 Sudoeste 29 Sudoeste 0 -- -- 90
2021-02-06 22:00:00 12.7 13 Sudoeste 21 Sur 0 -- -- 91
2021-02-06 21:00:00 12 6 Sudoeste 10 Sudeste 0 -- -- 90
2021-02-06 20:00:00 12.2 3 Sudoeste 8 Sudeste 0 -- -- 88
2021-02-06 19:00:00 13.3 3 Sudeste 8 Sudoeste 0 -- -- 88
2021-02-06 18:00:00 14.5 4 Sudoeste 11 Sur 0 -- -- 86
2021-02-06 17:00:00 15.3 9 Sudoeste 16 Sur 0 -- -- 83
2021-02-06 16:00:00 16.1 13 Sur 17 Sur 0 -- -- 83
2021-02-06 15:00:00 16.8 14 Sudoeste 28 Sudoeste 0 -- -- 81
2021-02-06 14:00:00 15.7 19 Sudoeste 39 Sudoeste 0 -- -- 86
2021-02-06 13:00:00 15.5 27 Sudoeste 42 Sudoeste 0 -- -- 86
2021-02-06 12:00:00 15.7 29 Sudoeste 45 Sudoeste 0 -- -- 87
2021-02-06 11:00:00 15.7 27 Sur 46 Sur 0 -- -- 84
2021-02-06 10:00:00 15.7 30 Sur 44 Sur 0 -- -- 79
2021-02-06 09:00:00 16 27 Sur 41 Sur 0 -- -- 71
2021-02-06 08:00:00 16.9 24 Sur 35 Sur 0 -- -- 60
2021-02-06 07:00:00 17.4 21 Sur 43 Sur 0 -- -- 57
2021-02-06 06:00:00 20 32 Sur 55 Sur 0 -- -- 40
2021-02-06 05:00:00 21 33 Sur 63 Sur 0 -- -- 35
2021-02-06 04:00:00 19.8 27 Sudoeste 49 Sur 0 -- -- 43
2021-02-06 03:00:00 18.2 23 Sur 46 Sur 0 -- -- 56
2021-02-06 02:00:00 18.5 26 Sur 45 Sur 0 -- -- 55
2021-02-06 01:00:00 19.1 23 Sur 49 Sudeste 0 -- -- 49
2021-02-06 00:00:00 19.1 29 Sudeste 46 Sudeste 0 -- -- 46
2021-02-05 23:00:00 18.3 23 Sudeste 38 Sudeste 0 -- -- 44
2021-02-05 22:00:00 16.8 17 Sudeste 29 Sudeste 0 -- -- 52
2021-02-05 21:00:00 16.2 20 Sudeste 33 Sudeste 0 -- -- 58
2021-02-05 20:00:00 15.4 18 Sudeste 33 Sudeste 0 -- -- 67
2021-02-05 19:00:00 16.5 15 Sudeste 23 Sudeste 0 -- -- 59
2021-02-05 18:00:00 16.9 14 Sudeste 23 Sur 0 -- -- 56
2021-02-05 17:00:00 18.6 14 Sur 24 Sur 0 -- -- 51
2021-02-05 16:00:00 19.9 12 Sur 30 Sur 0 -- -- 49
2021-02-05 15:00:00 19.5 21 Sur 32 Sur 0 -- -- 49
2021-02-05 14:00:00 20 19 Sur 37 Sur 0 -- -- 49
2021-02-05 13:00:00 19.4 24 Sur 36 Sur 0 -- -- 51
2021-02-05 12:00:00 19.1 23 Sur 35 Sur 0 -- -- 53
2021-02-05 11:00:00 18.5 23 Sur 38 Sur 0 -- -- 60
2021-02-05 10:00:00 17.1 23 Sur 33 Sudeste 0 -- -- 71
2021-02-05 09:00:00 13 21 Sudeste 30 Sudeste 0 -- -- 95
2021-02-05 08:00:00 11.7 19 Sudeste 27 Sudeste 0.2 -- -- 97
2021-02-05 07:00:00 8.9 4 Oeste 7 Oeste 0 -- -- 97
2021-02-05 06:00:00 9.1 4 Oeste 8 Oeste 0 -- -- 96
2021-02-05 05:00:00 9.5 0 Calma 5 Oeste 0 -- -- 97
2021-02-05 04:00:00 8.7 5 Noroeste 6 Oeste 0 -- -- 97
2021-02-05 03:00:00 9.2 2 Noroeste 5 Oeste 0 -- -- 95
2021-02-05 02:00:00 9.4 3 Nordeste 7 Sudoeste 0 -- -- 96
2021-02-05 01:00:00 10.3 3 Sudeste 13 Sur 0 -- -- 94
2021-02-05 00:00:00 10.5 5 Sur 9 Sur 0 -- -- 97
2021-02-04 23:00:00 10.9 6 Sur 14 Sur 0 -- -- 96
2021-02-04 22:00:00 11.4 12 Sur 22 Sur 0 -- -- 95
2021-02-04 21:00:00 11.7 14 Sur 21 Sur 0 -- -- 95
2021-02-04 20:00:00 11.2 9 Sur 15 Sudoeste 0 -- -- 93
2021-02-04 19:00:00 12.4 9 Sur 15 Sur 0 -- -- 89
2021-02-04 18:00:00 14.6 6 Sur 12 Sur 0 -- -- 81
2021-02-04 17:00:00 16.2 4 Norte 9 Norte 0 -- -- 76
2021-02-04 16:00:00 18 3 Sudeste 18 Sur 0 -- -- 69
2021-02-04 15:00:00 16.8 12 Sur 22 Sudoeste 0 -- -- 73
2021-02-04 14:00:00 15.2 15 Sur 23 Sudoeste 0 -- -- 80
2021-02-04 13:00:00 14.3 17 Sur 24 Sudoeste 0 -- -- 86
2021-02-04 12:00:00 13.7 15 Sudoeste 23 Sur 0 -- -- 91
2021-02-04 11:00:00 13.3 15 Sur 23 Sur 0 -- -- 94
2021-02-04 10:00:00 12.5 11 Sur 18 Sur 0 -- -- 96
2021-02-04 09:00:00 11.6 11 Sur 18 Sur 0 -- -- 97
2021-02-04 08:00:00 11.4 10 Sur 17 Sur 0 -- -- 97
2021-02-04 07:00:00 11.3 9 Sudoeste 15 Sudoeste 0 -- -- 97
2021-02-04 06:00:00 11.2 9 Sur 14 Sur 0 -- -- 97
2021-02-04 05:00:00 11.1 9 Sur 16 Sur 0 -- -- 97
2021-02-04 04:00:00 10.4 8 Sur 12 Sur 0 -- -- 97
2021-02-04 03:00:00 10.8 4 Sur 9 Sur 0 -- -- 96
2021-02-04 02:00:00 11.2 5 Sur 12 Sudoeste 0 -- -- 96
2021-02-04 01:00:00 12.1 6 Sudoeste 14 Sur 0 -- -- 96
2021-02-04 00:00:00 12.4 8 Sudoeste 13 Sur 0 -- -- 95
2021-02-03 23:00:00 12.7 6 Sudoeste 15 Sur 0 -- -- 94
2021-02-03 22:00:00 12.6 9 Sur 15 Sur 0 -- -- 94
2021-02-03 21:00:00 12.6 4 Sur 20 Sur 0 -- -- 93
2021-02-03 20:00:00 13 12 Sudoeste 23 Sur 0 -- -- 93
2021-02-03 19:00:00 13.1 12 Sur 18 Sur 0 -- -- 91
2021-02-03 18:00:00 13.5 6 Sudoeste 16 Sur 0 -- -- 89
2021-02-03 17:00:00 14.6 11 Sudoeste 19 Sudoeste 0 -- -- 85
2021-02-03 16:00:00 15 13 Sudoeste 20 Sur 0 -- -- 83
2021-02-03 15:00:00 15.8 14 Sudoeste 24 Sudoeste 0 -- -- 78
2021-02-03 14:00:00 15.7 16 Sudoeste 23 Sudoeste 0 -- -- 80
2021-02-03 13:00:00 14.8 15 Sur 26 Sudoeste 0 -- -- 86
2021-02-03 12:00:00 14 21 Sudoeste 30 Sudoeste 0 -- -- 88
2021-02-03 11:00:00 13.3 21 Sudoeste 33 Sudoeste 0 -- -- 90
2021-02-03 10:00:00 12.9 26 Sudoeste 38 Sudoeste 0 -- -- 92
2021-02-03 09:00:00 12.5 22 Sudoeste 36 Sur 0 -- -- 93
2021-02-03 08:00:00 12.4 20 Sudoeste 37 Sudoeste 0 -- -- 93
2021-02-03 07:00:00 12.2 21 Sudoeste 34 Sur 0 -- -- 94
2021-02-03 06:00:00 12.3 17 Sur 34 Sur 0 -- -- 94
2021-02-03 05:00:00 12.4 18 Sudoeste 35 Sur 0 -- -- 95
2021-02-03 04:00:00 12.6 17 Sudoeste 30 Sur 0 -- -- 95
2021-02-03 03:00:00 11.9 17 Sur 25 Sur 0 -- -- 95
2021-02-03 02:00:00 11.7 16 Sur 24 Sur 0 -- -- 94
2021-02-03 01:00:00 11.9 18 Sur 24 Sudoeste 0 -- -- 94
2021-02-03 00:00:00 12 17 Sur 26 Sur 0 -- -- 94
2021-02-02 23:00:00 12.2 14 Sur 23 Sur 0 -- -- 94
2021-02-02 22:00:00 12.4 5 Sudoeste 22 Sudeste 0 -- -- 93
2021-02-02 21:00:00 12.6 8 Sur 19 Sudeste 0 -- -- 92
2021-02-02 20:00:00 12.8 7 Sur 19 Sur 0 -- -- 91
2021-02-02 19:00:00 13.4 11 Sur 24 Sur 0 -- -- 87
2021-02-02 18:00:00 15.3 13 Sur 21 Sudoeste 0 -- -- 68
2021-02-02 17:00:00 18.3 9 Sudoeste 22 Sudoeste 0 -- -- 55
2021-02-02 16:00:00 16.9 17 Sur 24 Sur 0 -- -- 64
2021-02-02 15:00:00 17.4 14 Sudoeste 29 Oeste 0 -- -- 63
2021-02-02 14:00:00 18.8 20 Oeste 31 Oeste 0 -- -- 53
2021-02-02 13:00:00 18.1 15 Oeste 31 Oeste 0 -- -- 56
2021-02-02 12:00:00 18 14 Oeste 32 Noroeste 0 -- -- 54
2021-02-02 11:00:00 17.2 12 Noroeste 28 Oeste 0 -- -- 59
2021-02-02 10:00:00 15.6 13 Oeste 22 Oeste 0 -- -- 70
2021-02-02 09:00:00 15.3 3 Noroeste 28 Noroeste 0 -- -- 66
2021-02-02 08:00:00 14.6 14 Noroeste 35 Noroeste 0 -- -- 68
2021-02-02 07:00:00 14.6 19 Noroeste 30 Oeste 0 -- -- 69
2021-02-02 06:00:00 14.3 13 Oeste 27 Oeste 0 -- -- 69
2021-02-02 05:00:00 14.4 17 Oeste 30 Oeste 0 -- -- 70
2021-02-02 04:00:00 14.9 19 Oeste 38 Oeste 0 -- -- 67
2021-02-02 03:00:00 14.6 15 Oeste 29 Oeste 0 -- -- 69
2021-02-02 02:00:00 14.9 17 Oeste 31 Oeste 0 -- -- 67
2021-02-02 01:00:00 14.9 17 Oeste 30 Oeste 0 -- -- 67
2021-02-02 00:00:00 14.5 16 Oeste 33 Oeste 0 -- -- 69
2021-02-01 23:00:00 14.5 22 Oeste 32 Oeste 0 -- -- 72
2021-02-01 22:00:00 14.2 16 Oeste 35 Oeste 0 -- -- 69
2021-02-01 21:00:00 14.4 20 Oeste 35 Oeste 0 -- -- 70
2021-02-01 20:00:00 13.8 14 Oeste 32 Oeste 0 -- -- 73
2021-02-01 19:00:00 13.7 17 Oeste 31 Oeste 0 -- -- 72
2021-02-01 18:00:00 14.3 22 Noroeste 36 Noroeste 0 -- -- 69
2021-02-01 17:00:00 14.7 21 Oeste 43 Oeste 0 -- -- 63
2021-02-01 16:00:00 16 26 Noroeste 61 Noroeste 0 -- -- 59
2021-02-01 15:00:00 16.3 31 Noroeste 57 Oeste 0 -- -- 55
2021-02-01 14:00:00 16.1 38 Oeste 61 Oeste 0 -- -- 56
2021-02-01 13:00:00 16.2 35 Oeste 70 Noroeste 0 -- -- 56
2021-02-01 12:00:00 15.4 34 Oeste 62 Oeste 0 -- -- 61
2021-02-01 11:00:00 16.1 32 Oeste 53 Oeste 0 -- -- 59
2021-02-01 10:00:00 15.6 32 Oeste 52 Oeste 0 -- -- 62
2021-02-01 09:00:00 15.1 24 Oeste 51 Oeste 0 -- -- 64
2021-02-01 08:00:00 15.3 28 Oeste 59 Oeste 0 -- -- 62
2021-02-01 07:00:00 15.5 32 Oeste 56 Noroeste 0 -- -- 61
2021-02-01 06:00:00 15.6 26 Oeste 45 Oeste 0 -- -- 62
2021-02-01 05:00:00 15.2 25 Oeste 42 Oeste 0 -- -- 67
2021-02-01 04:00:00 15.2 31 Oeste 48 Oeste 0 -- -- 70
2021-02-01 03:00:00 14.7 19 Oeste 35 Sudoeste 0 -- -- 71
2021-02-01 02:00:00 13.3 20 Sudoeste 32 Sudoeste 0 -- -- 77
2021-02-01 01:00:00 14.3 22 Oeste 31 Oeste 0 -- -- 72
2021-02-01 00:00:00 12.6 15 Sudoeste 21 Sudoeste 0 -- -- 82
2021-01-31 23:00:00 12.3 13 Sudoeste 19 Sudoeste 0 -- -- 77
2021-01-31 22:00:00 12.1 13 Sudoeste 22 Sudoeste 0 -- -- 75
2021-01-31 21:00:00 12.2 11 Sudoeste 22 Sudoeste 0 -- -- 70
2021-01-31 20:00:00 12.5 12 Sudoeste 21 Sudoeste 0 -- -- 65
2021-01-31 19:00:00 13.2 12 Sudoeste 27 Oeste 0 -- -- 61
2021-01-31 18:00:00 13.6 15 Oeste 51 Oeste 0 -- -- 58
2021-01-31 17:00:00 14.2 27 Oeste 50 Oeste 0 -- -- 63
2021-01-31 16:00:00 14.9 25 Oeste 58 Oeste 0 -- -- 61
2021-01-31 15:00:00 14.5 31 Oeste 57 Oeste 0 -- -- 61
2021-01-31 14:00:00 14.5 32 Noroeste 56 Oeste 0 -- -- 62
2021-01-31 13:00:00 14.1 37 Noroeste 60 Noroeste 0 -- -- 61
2021-01-31 12:00:00 14.3 33 Oeste 58 Oeste 0 -- -- 61
2021-01-31 11:00:00 14.1 36 Oeste 56 Noroeste 0 -- -- 59
2021-01-31 10:00:00 13.9 27 Noroeste 54 Oeste 0 -- -- 60
2021-01-31 09:00:00 12.8 21 Oeste 46 Noroeste 0 -- -- 63
2021-01-31 08:00:00 12.4 28 Oeste 42 Oeste 0 -- -- 64
2021-01-31 07:00:00 12.1 23 Oeste 52 Oeste 0 -- -- 67
2021-01-31 06:00:00 11.8 25 Oeste 41 Noroeste 0 -- -- 68
2021-01-31 05:00:00 11.6 23 Oeste 39 Oeste 0 -- -- 72
2021-01-31 04:00:00 11.5 20 Oeste 36 Oeste 0 -- -- 72
2021-01-31 03:00:00 11.1 17 Oeste 31 Oeste 0 -- -- 77
2021-01-31 02:00:00 9.4 8 Sudoeste 14 Sudoeste 0 -- -- 90
2021-01-31 01:00:00 8.9 6 Sur 17 Sur 0 -- -- 91
2021-01-31 00:00:00 9.2 7 Sur 13 Nordeste 0 -- -- 89
2021-01-30 23:00:00 10.2 11 Nordeste 20 Nordeste 0.4 -- -- 84
2021-01-30 22:00:00 10.9 7 Nordeste 18 Sur 0 -- -- 82
2021-01-30 21:00:00 10.6 8 Oeste 22 Sudoeste 0 -- -- 84
2021-01-30 20:00:00 11.2 3 Noroeste 11 Norte 0 -- -- 78
2021-01-30 19:00:00 12.2 10 Norte 23 Norte 0 -- -- 76
2021-01-30 18:00:00 14.7 13 Oeste 38 Oeste 0 -- -- 65
2021-01-30 17:00:00 15.2 24 Oeste 60 Oeste 0 -- -- 70
2021-01-30 16:00:00 15.9 31 Oeste 58 Oeste 0 -- -- 68
2021-01-30 15:00:00 16.8 32 Oeste 51 Oeste 0 -- -- 64
2021-01-30 14:00:00 16.6 30 Oeste 47 Oeste 0 -- -- 66
2021-01-30 13:00:00 15.6 23 Sudoeste 36 Sudoeste 0 -- -- 80
2021-01-30 12:00:00 14.5 23 Sudoeste 42 Sudoeste 0 -- -- 87
2021-01-30 11:00:00 14 30 Sudoeste 46 Sudoeste 0 -- -- 89
2021-01-30 10:00:00 13.7 18 Sur 27 Sur 0 -- -- 91
2021-01-30 09:00:00 13 11 Sur 24 Sur 0 -- -- 91
2021-01-30 08:00:00 12.4 7 Sur 21 Sur 0 -- -- 89
2021-01-30 07:00:00 13.1 15 Sudoeste 23 Sur 0 -- -- 81
2021-01-30 06:00:00 12.8 9 Sudoeste 22 Sur 0 -- -- 86
2021-01-30 05:00:00 12.9 14 Sur 21 Sur 0 -- -- 82
2021-01-30 04:00:00 12.9 8 Sur 15 Sudoeste 0 -- -- 77
2021-01-30 03:00:00 13.9 5 Sudoeste 10 Sudoeste 0 -- -- 77
2021-01-30 02:00:00 13.9 5 Sudoeste 11 Sudoeste 0 -- -- 78
2021-01-30 01:00:00 13.8 6 Sur 14 Sudoeste 0 -- -- 79
2021-01-30 00:00:00 13.4 7 Sur 14 Sudoeste 0 -- -- 83
2021-01-29 23:00:00 13.8 9 Sur 14 Sur 0 -- -- 80
2021-01-29 22:00:00 14 9 Sudoeste 19 Sudoeste 0 -- -- 76
2021-01-29 21:00:00 15 15 Sudoeste 24 Sudoeste 0 -- -- 71
2021-01-29 20:00:00 16.1 8 Oeste 19 Oeste 0 -- -- 62
2021-01-29 19:00:00 15.7 12 Oeste 17 Oeste 0 -- -- 66
2021-01-29 18:00:00 16.5 6 Oeste 23 Oeste 0 -- -- 64
2021-01-29 17:00:00 18.2 12 Oeste 28 Noroeste 0 -- -- 60
2021-01-29 16:00:00 18.3 23 Oeste 30 Oeste 0 -- -- 60
2021-01-29 15:00:00 18.7 20 Oeste 36 Oeste 0 -- -- 60
2021-01-29 14:00:00 19.2 16 Noroeste 34 Noroeste 0 -- -- 59
2021-01-29 13:00:00 19.3 13 Noroeste 37 Noroeste 0 -- -- 61
2021-01-29 12:00:00 19.6 15 Noroeste 33 Noroeste 0 -- -- 59
2021-01-29 11:00:00 19.1 22 Oeste 33 Oeste 0 -- -- 61
2021-01-29 10:00:00 17.9 24 Oeste 41 Oeste 0 -- -- 66
2021-01-29 09:00:00 17.4 16 Oeste 38 Oeste 0 -- -- 66
2021-01-29 08:00:00 16.8 21 Oeste 32 Oeste 0 -- -- 68
2021-01-29 07:00:00 14.8 17 Sudoeste 31 Sudoeste 0 -- -- 78
2021-01-29 06:00:00 14.6 23 Sudoeste 34 Sudoeste 0 -- -- 77
2021-01-29 05:00:00 15.2 13 Sudoeste 23 Sudoeste 0 -- -- 74
2021-01-29 04:00:00 13.3 11 Sudoeste 17 Sudoeste 0 -- -- 89
2021-01-29 03:00:00 13 15 Sur 21 Sudoeste 0 -- -- 91
2021-01-29 02:00:00 13.1 13 Sudoeste 21 Sudoeste 0 -- -- 91
2021-01-29 01:00:00 13.1 5 Sur 13 Sudoeste 0 -- -- 88
2021-01-29 00:00:00 13.4 6 Sur 12 Sur 0 -- -- 83
2021-01-28 23:00:00 13.1 5 Sur 10 Sur 0 -- -- 88
2021-01-28 22:00:00 12.5 5 Sudoeste 7 Sur 0 -- -- 90
2021-01-28 21:00:00 12.2 5 Sur 7 Sur 0 -- -- 88
2021-01-28 20:00:00 12.9 3 Sudoeste 7 Oeste 0 -- -- 85
2021-01-28 19:00:00 14.1 3 Norte 6 Nordeste 0 -- -- 81
2021-01-28 18:00:00 16 2 Nordeste 10 Sudoeste 0 -- -- 73
2021-01-28 17:00:00 18.3 9 Sudoeste 13 Sur 0 -- -- 70
2021-01-28 16:00:00 20.3 6 Oeste 15 Oeste 0 -- -- 59
2021-01-28 15:00:00 19.6 10 Norte 21 Noroeste 0 -- -- 59
2021-01-28 14:00:00 20.5 9 Noroeste 30 Oeste 0 -- -- 57
2021-01-28 13:00:00 19.6 21 Oeste 31 Oeste 0 -- -- 62
2021-01-28 12:00:00 19 15 Oeste 25 Oeste 0 -- -- 68
2021-01-28 11:00:00 16.7 12 Sudoeste 23 Sudoeste 0 -- -- 78
2021-01-28 10:00:00 15.6 9 Sudoeste 18 Noroeste 0 -- -- 81
2021-01-28 09:00:00 15 12 Oeste 19 Noroeste 0 -- -- 82
2021-01-28 08:00:00 13.3 5 Este 13 Oeste 0 -- -- 88
2021-01-28 07:00:00 13.7 10 Oeste 19 Oeste 0 -- -- 87
2021-01-28 06:00:00 12.7 2 Sudoeste 14 Sudoeste 0 -- -- 90
2021-01-28 05:00:00 12.4 4 Sudoeste 18 Sudoeste 0 -- -- 90
2021-01-28 04:00:00 12.3 10 Sudoeste 28 Sudoeste 0 -- -- 90
2021-01-28 03:00:00 12.3 13 Sudoeste 27 Sudoeste 0 -- -- 91
2021-01-28 02:00:00 12.1 5 Sur 12 Sudoeste 0 -- -- 91
2021-01-28 01:00:00 11.9 3 Sudoeste 13 Sur 0 -- -- 91
2021-01-28 00:00:00 11.7 7 Sudoeste 15 Sudoeste 0 -- -- 89
2021-01-27 23:00:00 11.9 12 Sudoeste 18 Sur 0 -- -- 83
2021-01-27 22:00:00 11.1 8 Sur 10 Sudoeste 0 -- -- 86
2021-01-27 21:00:00 11.2 6 Sur 10 Sur 0 -- -- 88
2021-01-27 20:00:00 11.1 2 Oeste 6 Oeste 0 -- -- 87
2021-01-27 19:00:00 11.9 5 Este 6 Nordeste 0 -- -- 83
2021-01-27 18:00:00 13.4 4 Norte 11 Norte 0 -- -- 78
2021-01-27 17:00:00 14.7 8 Norte 14 Noroeste 0 -- -- 74
2021-01-27 16:00:00 15.8 5 Norte 19 Norte 0 -- -- 71
2021-01-27 15:00:00 15.5 10 Norte 21 Noroeste 0 -- -- 72
2021-01-27 14:00:00 16.4 11 Norte 28 Noroeste 0 -- -- 68
2021-01-27 13:00:00 16.3 15 Noroeste 28 Oeste 0 -- -- 71
2021-01-27 12:00:00 15.8 19 Oeste 29 Oeste 0 -- -- 78
2021-01-27 11:00:00 14.8 9 Oeste 17 Oeste 0 -- -- 88
2021-01-27 10:00:00 13.2 8 Oeste 25 Sudoeste 0 -- -- 91
2021-01-27 09:00:00 12.6 18 Sudoeste 27 Sudoeste 0 -- -- 92
2021-01-27 08:00:00 12.5 16 Sudoeste 30 Sudoeste 0 -- -- 91
2021-01-27 07:00:00 12.4 16 Sudoeste 30 Sur 0 -- -- 90
2021-01-27 06:00:00 12.3 16 Sudoeste 23 Sudoeste 0 -- -- 89
2021-01-27 05:00:00 11.3 6 Sur 15 Sur 0 -- -- 90
2021-01-27 04:00:00 11 10 Sudoeste 17 Sudoeste 0 -- -- 90
2021-01-27 03:00:00 10 11 Sur 18 Sudoeste 0 -- -- 90
2021-01-27 02:00:00 10 12 Sudoeste 16 Sudoeste 0 -- -- 88
2021-01-27 01:00:00 9.4 10 Sudoeste 12 Sur 0 -- -- 87
2021-01-27 00:00:00 9.7 10 Sudoeste 13 Sudoeste 0 -- -- 85
2021-01-26 23:00:00 9.9 10 Sudoeste 20 Sudoeste 0 -- -- 83
2021-01-26 22:00:00 9.8 11 Sudoeste 21 Sudoeste 0 -- -- 80
2021-01-26 21:00:00 10 15 Sudoeste 21 Sudoeste 0 -- -- 78
2021-01-26 20:00:00 9.7 12 Sudoeste 18 Sudoeste 0 -- -- 77
2021-01-26 19:00:00 9.3 12 Sudoeste 19 Sudoeste 0 -- -- 76
2021-01-26 18:00:00 9.6 8 Sudoeste 11 Sudoeste 0 -- -- 72
2021-01-26 17:00:00 10.5 0 Calma 14 Noroeste 0 -- -- 67
2021-01-26 16:00:00 11 8 Norte 16 Norte 0 -- -- 64
2021-01-26 15:00:00 11.1 10 Norte 19 Norte 0 -- -- 60
2021-01-26 14:00:00 11.1 12 Norte 26 Norte 0 -- -- 59
2021-01-26 13:00:00 10.7 17 Norte 28 Norte 0 -- -- 62
2021-01-26 12:00:00 10.5 18 Norte 29 Norte 0 -- -- 61
2021-01-26 11:00:00 9.9 21 Norte 37 Nordeste 0 -- -- 63
2021-01-26 10:00:00 9.2 16 Norte 34 Norte 0 -- -- 63
2021-01-26 09:00:00 9 24 Norte 39 Norte 0 -- -- 60
2021-01-26 08:00:00 8.8 22 Norte 41 Norte 0 -- -- 61
2021-01-26 07:00:00 9 24 Norte 45 Norte 0 -- -- 58
2021-01-26 06:00:00 8.9 21 Norte 51 Norte 0 -- -- 55
2021-01-26 05:00:00 9.1 17 Norte 41 Norte 0 -- -- 58
2021-01-26 04:00:00 9.3 21 Norte 42 Norte 0 -- -- 58
2021-01-26 03:00:00 9.5 24 Norte 44 Norte 0 -- -- 59
2021-01-26 02:00:00 9.8 25 Norte 45 Norte 0 -- -- 59
2021-01-26 01:00:00 10.1 25 Norte 41 Norte 0 -- -- 66
2021-01-26 00:00:00 10.2 23 Norte 40 Norte 0 -- -- 70
2021-01-25 23:00:00 10.2 22 Norte 40 Norte 0 -- -- 71
2021-01-25 22:00:00 9.6 20 Norte 42 Nordeste 0.2 -- -- 89
2021-01-25 21:00:00 9.8 22 Nordeste 35 Nordeste 1.2 -- -- 93
2021-01-25 20:00:00 10.5 11 Norte 30 Norte 1.2 -- -- 92
2021-01-25 19:00:00 12.8 18 Oeste 40 Oeste 0.8 -- -- 89
2021-01-25 18:00:00 12.7 15 Oeste 27 Sudoeste 0 -- -- 89
2021-01-25 17:00:00 12.3 12 Sudoeste 21 Oeste 0.4 -- -- 87
2021-01-25 16:00:00 12.6 11 Sudoeste 18 Sudoeste 0.2 -- -- 86
2021-01-25 15:00:00 12.4 7 Sudoeste 18 Sudoeste 0.6 -- -- 85
2021-01-25 14:00:00 13 10 Sudoeste 27 Oeste 0.2 -- -- 77
2021-01-25 13:00:00 14 14 Sudoeste 26 Sudoeste 0 -- -- 74
2021-01-25 12:00:00 13.1 12 Sudoeste 21 Sudoeste 0 -- -- 76
2021-01-25 11:00:00 13 13 Sudoeste 21 Sudoeste 0 -- -- 74
2021-01-25 10:00:00 12.9 12 Sudoeste 20 Sudoeste 0 -- -- 68
2021-01-25 09:00:00 12.8 15 Sudoeste 25 Oeste 0 -- -- 64
2021-01-25 08:00:00 12.4 13 Oeste 33 Oeste 0 -- -- 71
2021-01-25 07:00:00 12.7 18 Oeste 37 Oeste 0 -- -- 71
2021-01-25 06:00:00 12.2 18 Oeste 29 Oeste 0 -- -- 74
2021-01-25 05:00:00 11.9 10 Sudoeste 19 Sudoeste 0 -- -- 83
2021-01-25 04:00:00 12.2 15 Sudoeste 25 Sudoeste 0 -- -- 85
2021-01-25 03:00:00 12.6 20 Sudoeste 32 Sudoeste 0 -- -- 81
2021-01-25 02:00:00 12.5 22 Sudoeste 39 Sudoeste 0 -- -- 77
2021-01-25 01:00:00 12.6 25 Sudoeste 39 Sudoeste 0 -- -- 78
2021-01-25 00:00:00 11 15 Sudoeste 28 Sudoeste 0 -- -- 82